»·PEaware :: N253AW KSNA-KPSP

N253AW :: KSNA-KPSP

FLIGHT INFORMATION

Flight Status: Arrived
Operator: Privately registered:
United States
More flights under this callsign
Pilot: Dean S. (16265)
Aircraft: CESSNA 182 SKYLANE
(C182)
More flights by this aircraft type
Origin: KSNA John Wayne-Orange Co
United States
Destination: KPSP Palm Springs Intl
United States
More flights between these airports :: More routes between these airports
Route: +
File this flight plan on PilotEdge
Remarks:
Altitude:
(Current/Filed)
5,500ft
Speed:
(Current/Filed)
150kts
Departed: 05-Oct-17 06:45 PM
Arrived: 05-Oct-17 07:35 PM
Distance/Time
Traveled:
69nm/0:50
Distance/Time
To Go:
Arrived

Flight Plot

Page will automatically refresh every two minutes.


Map Options




Map Legend


Flown Route
Filed Route
Departure Airport
Arrival Airport
Navaid (VOR, NDB)
Fix

Horizontal Profiles

Position Reports

Time Latitude Longitude Heading Altitude Ground
Speed
05-Oct-17 18:36 33.682153 -117.860584 119 59ft 0kts
05-Oct-17 18:37 33.682153 -117.860583 119 59ft 0kts
05-Oct-17 18:38 33.682153 -117.860583 119 59ft 0kts
05-Oct-17 18:39 33.682153 -117.860582 119 59ft 0kts
05-Oct-17 18:40 33.682153 -117.860582 119 59ft 0kts
05-Oct-17 18:41 33.682152 -117.860582 119 59ft 0kts
05-Oct-17 18:42 33.682143 -117.860563 123 59ft 0kts
05-Oct-17 18:43 33.682143 -117.860563 123 59ft 0kts
05-Oct-17 18:44 33.682142 -117.860562 123 59ft 0kts
05-Oct-17 18:45 33.681656 -117.861714 204 59ft 13kts
05-Oct-17 18:46 33.679924 -117.863598 298 59ft 0kts
05-Oct-17 18:47 33.679925 -117.863599 298 59ft 0kts
05-Oct-17 18:48 33.679925 -117.863599 298 59ft 0kts
05-Oct-17 18:49 33.677080 -117.866129 205 59ft 64kts
05-Oct-17 18:50 33.653897 -117.872816 151 777ft 111kts
05-Oct-17 18:51 33.629604 -117.846259 136 1577ft 123kts
05-Oct-17 18:52 33.603903 -117.818136 137 2239ft 133kts
05-Oct-17 18:53 33.574220 -117.785721 137 2443ft 139kts
05-Oct-17 18:54 33.544012 -117.767339 134 3506ft 115kts
05-Oct-17 18:55 33.523915 -117.738032 120 4601ft 114kts
05-Oct-17 18:56 33.504873 -117.707541 129 5701ft 115kts
05-Oct-17 18:57 33.503349 -117.674523 61 6814ft 114kts
05-Oct-17 18:58 33.517987 -117.636328 65 7381ft 146kts
05-Oct-17 18:59 33.535480 -117.590014 65 7375ft 158kts
05-Oct-17 19:00 33.553962 -117.541081 65 7373ft 162kts
05-Oct-17 19:01 33.573251 -117.492193 63 7384ft 162kts
05-Oct-17 19:02 33.580598 -117.439539 88 7383ft 162kts
05-Oct-17 19:03 33.581649 -117.385328 88 7380ft 162kts
05-Oct-17 19:04 33.582703 -117.331397 88 7478ft 160kts
05-Oct-17 19:05 33.583757 -117.277504 88 7484ft 162kts
05-Oct-17 19:06 33.584639 -117.232355 88 7489ft 162kts
05-Oct-17 19:07 33.586239 -117.177941 86 7484ft 163kts
05-Oct-17 19:08 33.589313 -117.114756 86 7483ft 162kts
05-Oct-17 19:09 33.591951 -117.060603 86 7481ft 163kts
05-Oct-17 19:10 33.594160 -117.015266 86 7479ft 163kts
05-Oct-17 19:11 33.596796 -116.961105 86 7476ft 163kts
05-Oct-17 19:12 33.599428 -116.906902 86 7470ft 163kts
05-Oct-17 19:13 33.602069 -116.852525 86 7463ft 163kts
05-Oct-17 19:14 33.604698 -116.798395 86 7480ft 162kts
05-Oct-17 19:15 33.607336 -116.744059 86 7475ft 163kts
05-Oct-17 19:16 33.609951 -116.690203 86 7525ft 162kts
05-Oct-17 19:17 33.612571 -116.636245 86 7519ft 161kts
05-Oct-17 19:18 33.615195 -116.582218 86 7535ft 162kts
05-Oct-17 19:19 33.617815 -116.528263 86 7531ft 161kts
05-Oct-17 19:20 33.620458 -116.473851 86 7486ft 164kts
05-Oct-17 19:21 33.623052 -116.420416 86 7456ft 141kts
05-Oct-17 19:22 33.625176 -116.376690 86 7257ft 142kts
05-Oct-17 19:23 33.627498 -116.328893 86 6557ft 141kts
05-Oct-17 19:24 33.629735 -116.282829 86 5857ft 135kts
05-Oct-17 19:25 33.631456 -116.238126 91 5160ft 132kts
05-Oct-17 19:26 33.635857 -116.195120 45 4509ft 133kts
05-Oct-17 19:27 33.663975 -116.213144 301 4075ft 125kts
05-Oct-17 19:28 33.678774 -116.249658 291 3817ft 121kts
05-Oct-17 19:29 33.688962 -116.288027 270 3480ft 124kts
05-Oct-17 19:30 33.688114 -116.327203 277 3121ft 113kts
05-Oct-17 19:31 33.700999 -116.358385 303 2906ft 84kts
05-Oct-17 19:32 33.716953 -116.380670 311 2644ft 84kts
05-Oct-17 19:33 33.731221 -116.401687 305 2785ft 78kts
05-Oct-17 19:34 33.743983 -116.423853 307 2957ft 75kts
05-Oct-17 19:35 33.760658 -116.443560 318 2456ft 86kts
05-Oct-17 19:36 33.780108 -116.460622 324 1548ft 79kts
05-Oct-17 19:37 33.797919 -116.476423 321 1191ft 87kts
05-Oct-17 19:38 33.817041 -116.493514 322 693ft 85kts
05-Oct-17 19:39 33.829140 -116.503836 34 480ft 7kts
05-Oct-17 19:40 33.827079 -116.501255 151 480ft 17kts

Navigation Log

Ident Type
1. KSNA Airport
2. KPSP Airport